Time;durP1;ratioP1;P1;durP2;ratioP2;P2;SDS_P1;SDS_P2;PMS_P1;PMS_P2;Temp;Humidity;BMP_temperature;BMP_pressure;BME280_temperature;BME280_humidity;BME280_pressure;Samples;Min_cycle;Max_cycle;Signal;HPM_P1;HPM_P2
2024/01/12 00:00:13;;;;;;;0.70;0.22;;;;;;;3.17;98.81;103590.59;5093684;27;99165;-27
2024/01/12 00:02:39;;;;;;;0.17;0.10;;;;;;;3.24;99.20;103593.31;5093093;27;97781;-28
2024/01/12 00:05:04;;;;;;;2.40;0.55;;;;;;;3.24;99.14;103601.34;5094076;27;96636;-27
2024/01/12 00:07:30;;;;;;;8.05;0.45;;;;;;;3.24;98.62;103599.56;5075742;27;96832;-27
2024/01/12 00:09:55;;;;;;;0.15;0.10;;;;;;;3.27;98.52;103610.34;5093624;27;102252;-29
2024/01/12 00:12:20;;;;;;;0.30;0.20;;;;;;;3.22;98.06;103604.03;5093574;27;104770;-27
2024/01/12 00:14:46;;;;;;;0.00;0.00;;;;;;;3.21;97.87;103602.22;5093461;27;96648;-28
2024/01/12 00:17:11;;;;;;;0.00;0.00;;;;;;;3.26;97.79;103607.63;5093710;27;96753;-27
2024/01/12 00:19:36;;;;;;;0.00;0.00;;;;;;;3.25;98.07;103605.84;5093423;27;98936;-28
2024/01/12 00:22:02;;;;;;;5.25;0.10;;;;;;;3.29;97.75;103611.28;5093731;27;97819;-28
2024/01/12 00:24:27;;;;;;;0.43;0.38;;;;;;;3.29;97.64;103607.66;5093589;27;96444;-27
2024/01/12 00:26:52;;;;;;;0.10;0.10;;;;;;;3.26;97.96;103604.97;5093761;27;98474;-27
2024/01/12 00:29:17;;;;;;;0.88;0.63;;;;;;;3.24;97.50;103602.25;5093568;27;97834;-27
2024/01/12 00:31:43;;;;;;;0.40;0.30;;;;;;;3.28;98.35;103595.19;5093602;27;98934;-27
2024/01/12 00:34:08;;;;;;;0.20;0.20;;;;;;;3.24;97.53;103587.97;5093468;27;96467;-27
2024/01/12 00:36:33;;;;;;;0.35;0.30;;;;;;;3.26;97.63;103588.91;5093449;27;96764;-27
2024/01/12 00:38:59;;;;;;;0.40;0.20;;;;;;;3.28;97.73;103588.03;5092922;27;97919;-27
2024/01/12 00:41:24;;;;;;;2.40;1.17;;;;;;;3.33;97.52;103588.09;5091827;27;99333;-27
2024/01/12 00:43:50;;;;;;;0.32;0.32;;;;;;;3.30;97.53;103588.94;5093419;27;96455;-28
2024/01/12 00:46:15;;;;;;;0.20;0.10;;;;;;;3.34;97.37;103590.81;5074591;27;96847;-27
2024/01/12 00:48:41;;;;;;;0.35;0.35;;;;;;;3.32;97.65;103586.31;5092895;27;98319;-27
2024/01/12 00:51:06;;;;;;;0.00;0.00;;;;;;;3.34;97.58;103587.22;5093108;27;97755;-27
2024/01/12 00:53:31;;;;;;;0.65;0.30;;;;;;;3.35;97.23;103591.69;5093441;27;96607;-27
2024/01/12 00:55:57;;;;;;;1.33;0.60;;;;;;;3.34;96.78;103588.13;5093451;27;96699;-27
2024/01/12 00:58:22;;;;;;;0.10;0.00;;;;;;;3.35;96.99;103605.97;5093297;27;96771;-28
2024/01/12 01:00:47;;;;;;;1.65;0.30;;;;;;;3.31;96.77;103601.50;5093004;27;98753;-28
2024/01/12 01:03:13;;;;;;;0.90;0.30;;;;;;;3.34;96.54;103603.31;5092080;27;96705;-27
2024/01/12 01:05:38;;;;;;;0.30;0.30;;;;;;;3.29;96.52;103605.00;5093581;27;96759;-28
2024/01/12 01:08:04;;;;;;;0.30;0.20;;;;;;;3.32;96.46;103608.63;5093090;27;97887;-27
2024/01/12 01:10:29;;;;;;;1.45;1.05;;;;;;;3.31;96.89;103604.16;5093101;27;97922;-28
2024/01/12 01:12:54;;;;;;;0.28;0.20;;;;;;;3.33;96.61;103606.84;5093269;27;96523;-27
2024/01/12 01:15:20;;;;;;;0.10;0.10;;;;;;;3.32;95.84;103602.38;5093014;27;96782;-27
2024/01/12 01:17:45;;;;;;;0.40;0.32;;;;;;;3.31;96.72;103601.50;5093035;27;97432;-28
2024/01/12 01:20:11;;;;;;;0.35;0.35;;;;;;;3.32;96.64;103608.63;5093025;27;99104;-29
2024/01/12 01:22:37;;;;;;;0.85;0.50;;;;;;;3.34;96.42;103612.22;5074501;27;96541;-27
2024/01/12 01:25:03;;;;;;;0.47;0.20;;;;;;;3.29;95.38;103608.59;5074306;27;96858;-28
2024/01/12 01:27:28;;;;;;;0.32;0.10;;;;;;;3.35;95.79;103622.06;5092254;27;99223;-29
2024/01/12 01:29:53;;;;;;;0.20;0.20;;;;;;;3.35;95.60;103619.38;5092683;27;97765;-33
2024/01/12 01:32:19;;;;;;;0.43;0.20;;;;;;;3.40;95.19;103614.97;5092822;27;96617;-28
2024/01/12 01:34:44;;;;;;;1.80;0.28;;;;;;;3.38;95.54;103614.09;5092719;27;96535;-27
2024/01/12 01:37:09;;;;;;;0.13;0.13;;;;;;;3.37;95.69;103614.06;5092776;27;97861;-27
2024/01/12 01:39:35;;;;;;;0.57;0.38;;;;;;;3.42;95.66;103617.69;5093030;27;97234;-27
2024/01/12 01:42:01;;;;;;;2.20;0.63;;;;;;;3.38;95.80;103610.47;5092903;27;96598;-29
2024/01/12 01:44:27;;;;;;;0.08;0.00;;;;;;;3.38;95.13;103614.09;5093086;27;96751;-29
2024/01/12 01:46:53;;;;;;;0.60;0.57;;;;;;;3.43;95.21;103621.25;5092321;27;97982;-28
2024/01/12 01:49:19;;;;;;;0.32;0.10;;;;;;;3.38;95.33;103619.44;5073615;27;100822;-27
2024/01/12 01:51:45;;;;;;;1.75;0.70;;;;;;;3.36;94.65;103605.13;5073425;27;96661;-27
2024/01/12 01:54:11;;;;;;;1.95;0.15;;;;;;;3.40;95.32;103616.75;5077197;27;97349;-27
2024/01/12 01:56:39;;;;;;;0.00;0.00;;;;;;;3.45;94.68;103623.06;5096009;27;98074;-27
2024/01/12 01:59:05;;;;;;;0.20;0.20;;;;;;;3.40;94.98;103604.25;5095818;27;97332;-28
2024/01/12 02:01:31;;;;;;;0.08;0.08;;;;;;;3.41;95.03;103613.22;5076848;27;96778;-28
2024/01/12 02:03:57;;;;;;;2.83;0.70;;;;;;;3.42;94.87;103615.00;5077247;27;96795;-27
2024/01/12 02:06:22;;;;;;;0.45;0.30;;;;;;;3.40;94.93;103604.25;5095819;27;97953;-27
2024/01/12 02:08:48;;;;;;;1.73;0.50;;;;;;;3.34;95.02;103592.59;5096191;27;97806;-27
2024/01/12 02:11:13;;;;;;;0.05;0.05;;;;;;;3.44;94.93;103610.56;5095898;27;96622;-28
2024/01/12 02:13:38;;;;;;;0.70;0.65;;;;;;;3.45;94.75;103609.69;5096070;27;96935;-32
2024/01/12 02:16:04;;;;;;;0.20;0.20;;;;;;;3.42;94.51;103598.94;5094969;27;97544;-28
2024/01/12 02:18:29;;;;;;;0.22;0.20;;;;;;;3.46;95.08;103619.53;5095720;27;97325;-27
2024/01/12 02:20:56;;;;;;;0.63;0.63;;;;;;;3.43;94.73;103607.88;5095773;27;96571;-27
2024/01/12 02:23:22;;;;;;;0.70;0.28;;;;;;;3.44;94.55;103610.56;5077125;27;96811;-27
2024/01/12 02:25:47;;;;;;;0.20;0.20;;;;;;;3.33;94.64;103598.81;5095576;27;97437;-28
2024/01/12 02:28:12;;;;;;;1.88;0.47;;;;;;;3.37;94.52;103606.91;5095666;27;97321;-27
2024/01/12 02:30:38;;;;;;;0.32;0.32;;;;;;;3.39;94.67;103598.91;5095080;27;96738;-27
2024/01/12 02:33:05;;;;;;;1.08;0.45;;;;;;;3.43;94.34;103611.44;5096153;27;96700;-27
2024/01/12 02:35:31;;;;;;;0.00;0.00;;;;;;;3.39;94.43;103596.22;5076725;27;100922;-27
2024/01/12 02:37:56;;;;;;;0.32;0.30;;;;;;;3.36;95.23;103597.09;5095230;27;99702;-28
2024/01/12 02:40:21;;;;;;;0.22;0.22;;;;;;;3.36;94.86;103598.84;5095088;27;96492;-28
2024/01/12 02:42:47;;;;;;;0.20;0.10;;;;;;;3.40;94.69;103606.94;5095551;27;96794;-27
2024/01/12 02:45:12;;;;;;;18.80;0.85;;;;;;;3.40;94.89;103598.91;5095142;27;98467;-27
2024/01/12 02:47:37;;;;;;;2.08;0.75;;;;;;;3.44;95.13;103607.00;5095293;27;97210;-28
2024/01/12 02:50:03;;;;;;;0.32;0.32;;;;;;;3.37;94.95;103600.66;5095485;27;96661;-28
2024/01/12 02:52:35;;;;;;;0.50;0.30;;;;;;;3.41;95.21;103597.16;5076517;27;96917;-29
2024/01/12 02:55:04;;;;;;;0.15;0.15;;;;;;;3.38;95.04;103589.03;5076506;27;100899;-28
2024/01/12 02:57:30;;;;;;;1.38;0.80;;;;;;;3.36;94.87;103597.09;5094984;27;99742;-28
2024/01/12 02:59:56;;;;;;;0.25;0.20;;;;;;;3.27;95.22;103583.56;5076602;27;96577;-27
2024/01/12 03:02:21;;;;;;;0.00;0.00;;;;;;;3.33;95.66;103599.69;5094943;27;96801;-27
2024/01/12 03:04:47;;;;;;;1.30;0.57;;;;;;;3.32;95.65;103589.88;5093600;27;97498;-28
2024/01/12 03:07:13;;;;;;;0.20;0.20;;;;;;;3.30;95.85;103580.03;5094683;27;99104;-27
2024/01/12 03:09:39;;;;;;;2.80;0.80;;;;;;;3.31;95.46;103588.09;5094978;27;96546;-27
2024/01/12 03:12:04;;;;;;;0.30;0.30;;;;;;;3.30;95.60;103575.56;5095063;27;96717;-28
2024/01/12 03:14:29;;;;;;;0.45;0.38;;;;;;;3.35;95.41;103583.66;5094513;27;99194;-28
2024/01/12 03:16:55;;;;;;;2.05;0.43;;;;;;;3.34;95.55;103577.41;5094745;27;100723;-27
2024/01/12 03:19:20;;;;;;;1.02;0.57;;;;;;;3.33;95.59;103572.91;5094547;27;96600;-27
2024/01/12 03:21:45;;;;;;;0.00;0.00;;;;;;;3.29;95.94;103571.09;5094909;27;96777;-28
2024/01/12 03:24:11;;;;;;;0.20;0.20;;;;;;;3.33;96.20;103580.94;5094734;27;97499;-27
2024/01/12 03:26:39;;;;;;;0.55;0.25;;;;;;;3.27;96.10;103566.59;5094703;27;97316;-27
2024/01/12 03:29:05;;;;;;;0.60;0.30;;;;;;;3.28;96.33;103566.59;5075383;27;97408;-27
2024/01/12 03:31:30;;;;;;;0.25;0.25;;;;;;;3.30;96.16;103580.03;5094540;27;96725;-28
2024/01/12 03:33:56;;;;;;;0.65;0.38;;;;;;;3.24;95.86;103570.09;5075834;27;100721;-27
2024/01/12 03:36:26;;;;;;;0.50;0.43;;;;;;;3.30;95.67;103574.66;5094434;27;98079;-27
2024/01/12 03:38:54;;;;;;;0.20;0.20;;;;;;;3.32;95.93;103584.53;5075754;27;96567;-27
2024/01/12 03:41:20;;;;;;;0.47;0.20;;;;;;;3.27;96.04;103572.84;5075641;27;96902;-27
2024/01/12 03:43:45;;;;;;;0.63;0.20;;;;;;;3.33;96.01;103569.34;5094354;27;98171;-27
2024/01/12 03:46:10;;;;;;;0.38;0.10;;;;;;;3.28;95.92;103563.03;5094582;27;101162;-27
2024/01/12 03:48:36;;;;;;;0.52;0.52;;;;;;;3.27;96.35;103562.13;5075085;27;99213;-27
2024/01/12 03:51:01;;;;;;;0.10;0.10;;;;;;;3.26;96.00;103554.06;5093621;27;98415;-27
2024/01/12 03:53:26;;;;;;;0.20;0.20;;;;;;;3.27;95.88;103554.09;5093551;27;97874;-27
2024/01/12 03:55:52;;;;;;;0.25;0.25;;;;;;;3.29;96.19;103555.03;5094068;27;97525;-29
2024/01/12 03:58:17;;;;;;;2.75;0.22;;;;;;;3.34;95.88;103557.75;5094352;27;96464;-27
2024/01/12 04:00:42;;;;;;;0.30;0.22;;;;;;;3.29;95.82;103540.72;5094275;27;97061;-28
2024/01/12 04:03:08;;;;;;;0.10;0.10;;;;;;;3.28;96.18;103550.53;5093554;27;100201;-27
2024/01/12 04:05:33;;;;;;;0.15;0.15;;;;;;;3.25;95.73;103545.16;5093773;27;99321;-27
2024/01/12 04:07:58;;;;;;;0.68;0.28;;;;;;;3.25;95.71;103542.47;5093737;27;103579;-27
2024/01/12 04:10:23;;;;;;;0.22;0.20;;;;;;;3.26;95.66;103549.59;5093771;27;96944;-28
2024/01/12 04:12:49;;;;;;;0.13;0.13;;;;;;;3.23;95.63;103541.53;5094106;27;97369;-27
2024/01/12 04:15:14;;;;;;;0.10;0.10;;;;;;;3.22;95.70;103545.13;5093584;27;97758;-27
2024/01/12 04:17:39;;;;;;;0.20;0.20;;;;;;;3.22;95.66;103549.53;5093546;27;96544;-27
2024/01/12 04:20:06;;;;;;;0.10;0.10;;;;;;;3.31;95.89;103547.00;5093769;27;96809;-27
2024/01/12 04:22:31;;;;;;;0.30;0.30;;;;;;;3.29;95.63;103556.78;5075004;27;102446;-27
2024/01/12 04:24:57;;;;;;;0.20;0.20;;;;;;;3.18;95.83;103552.19;5093226;27;105637;-28
2024/01/12 04:27:25;;;;;;;0.90;0.63;;;;;;;3.21;96.08;103563.84;5075025;27;96492;-27
2024/01/12 04:29:50;;;;;;;0.45;0.35;;;;;;;3.15;96.18;103557.53;5093730;27;96794;-27
2024/01/12 04:32:15;;;;;;;0.35;0.30;;;;;;;3.14;96.47;103554.81;5093693;27;97405;-27
2024/01/12 04:34:41;;;;;;;0.00;0.00;;;;;;;3.14;96.08;103557.50;5094303;27;97395;-27
2024/01/12 04:37:07;;;;;;;1.45;0.47;;;;;;;3.19;96.57;103571.84;5093535;27;96465;-27
2024/01/12 04:39:32;;;;;;;0.10;0.10;;;;;;;3.11;96.60;103560.13;5093448;27;96709;-27
2024/01/12 04:41:58;;;;;;;2.55;0.10;;;;;;;3.19;96.38;103570.09;5093020;27;97483;-27
2024/01/12 04:44:23;;;;;;;0.68;0.32;;;;;;;3.19;96.82;103575.44;5093490;27;97733;-27
2024/01/12 04:46:49;;;;;;;0.10;0.10;;;;;;;3.25;95.96;103557.66;5093606;27;96708;-27
2024/01/12 04:49:14;;;;;;;1.08;0.55;;;;;;;3.24;95.57;103553.16;5093107;27;96776;-27
2024/01/12 04:51:39;;;;;;;0.30;0.22;;;;;;;3.13;96.17;103547.66;5092957;27;97402;-28
2024/01/12 04:54:05;;;;;;;0.28;0.28;;;;;;;3.11;96.31;103553.00;5093178;27;100069;-27
2024/01/12 04:56:30;;;;;;;0.65;0.30;;;;;;;3.13;96.40;103561.06;5093247;27;96524;-28
2024/01/12 04:58:55;;;;;;;0.55;0.32;;;;;;;3.12;96.48;103553.88;5093521;27;96571;-29
2024/01/12 05:01:21;;;;;;;0.17;0.17;;;;;;;3.08;96.66;103552.97;5092872;27;101133;-27
2024/01/12 05:03:46;;;;;;;2.35;0.43;;;;;;;3.04;96.84;103540.41;5092495;27;99713;-28
2024/01/12 05:06:12;;;;;;;0.30;0.25;;;;;;;3.06;96.70;103538.66;5092495;27;96625;-28
2024/01/12 05:08:37;;;;;;;0.35;0.25;;;;;;;3.03;96.52;103540.38;5093183;27;96814;-27
2024/01/12 05:11:03;;;;;;;0.40;0.32;;;;;;;3.01;96.39;103536.81;5092835;27;97866;-27
2024/01/12 05:13:29;;;;;;;0.15;0.15;;;;;;;3.02;96.93;103541.25;5074457;27;101082;-27
2024/01/12 05:15:55;;;;;;;0.10;0.10;;;;;;;2.97;96.17;103541.19;5074414;27;96559;-29
2024/01/12 05:18:20;;;;;;;0.10;0.10;;;;;;;2.98;96.52;103543.03;5093112;27;96770;-27
2024/01/12 05:20:45;;;;;;;0.43;0.30;;;;;;;3.03;97.34;103548.41;5092814;27;103729;-28
2024/01/12 05:23:11;;;;;;;0.75;0.63;;;;;;;3.00;96.23;103557.28;5093426;27;98107;-27
2024/01/12 05:25:36;;;;;;;0.05;0.00;;;;;;;3.01;96.51;103555.53;5093078;27;96734;-27
2024/01/12 05:28:02;;;;;;;0.13;0.13;;;;;;;2.94;96.38;103547.41;5094717;27;96820;-28
2024/01/12 05:30:28;;;;;;;0.50;0.50;;;;;;;2.97;97.08;103549.22;5077145;27;101193;-27
2024/01/12 05:32:53;;;;;;;0.15;0.10;;;;;;;3.00;96.83;103562.66;5096487;27;96625;-27
2024/01/12 05:35:18;;;;;;;0.35;0.30;;;;;;;2.97;96.26;103560.84;5096521;27;96486;-27
2024/01/12 05:37:44;;;;;;;0.45;0.43;;;;;;;2.96;96.49;103561.72;5096654;27;96640;-27
2024/01/12 05:40:10;;;;;;;0.73;0.22;;;;;;;2.96;96.23;103569.75;5095655;27;99269;-28
2024/01/12 05:42:35;;;;;;;0.90;0.47;;;;;;;2.97;96.74;103566.19;5077486;27;101849;-28
2024/01/12 05:45:00;;;;;;;0.10;0.10;;;;;;;2.98;96.50;103568.00;5096326;27;96515;-27
2024/01/12 05:47:25;;;;;;;0.00;0.00;;;;;;;2.95;96.83;103567.94;5096587;27;96817;-28
2024/01/12 05:49:51;;;;;;;0.20;0.10;;;;;;;2.88;96.26;103555.34;5095947;27;99703;-27
2024/01/12 05:52:16;;;;;;;0.08;0.08;;;;;;;2.94;96.64;103574.19;5095595;27;98806;-28
2024/01/12 05:54:42;;;;;;;0.15;0.10;;;;;;;2.90;97.00;103558.94;5095468;27;96727;-27
2024/01/12 05:57:08;;;;;;;0.32;0.20;;;;;;;2.90;97.44;103550.03;5077488;27;96843;-27
2024/01/12 05:59:33;;;;;;;0.95;0.45;;;;;;;2.90;97.52;103558.94;5095809;27;99234;-29
2024/01/12 06:01:58;;;;;;;0.45;0.45;;;;;;;2.86;97.61;103548.19;5095261;27;99312;-27
2024/01/12 06:04:24;;;;;;;0.00;0.00;;;;;;;2.90;96.97;103560.72;5095903;27;96671;-29
2024/01/12 06:06:49;;;;;;;0.10;0.08;;;;;;;2.89;97.66;103558.94;5095865;27;96793;-27
2024/01/12 06:09:15;;;;;;;0.15;0.15;;;;;;;2.84;97.52;103548.19;5095529;27;97984;-27
2024/01/12 06:11:44;;;;;;;0.93;0.75;;;;;;;2.95;97.46;103559.91;5095908;27;99261;-27
2024/01/12 06:14:10;;;;;;;0.10;0.10;;;;;;;2.91;97.20;103555.41;5077133;27;96779;-28
2024/01/12 06:16:35;;;;;;;0.03;0.03;;;;;;;2.89;96.90;103550.91;5077074;27;96802;-28
2024/01/12 06:19:01;;;;;;;0.15;0.08;;;;;;;2.93;97.83;103564.38;5095338;27;97887;-27
2024/01/12 06:21:26;;;;;;;0.10;0.10;;;;;;;2.87;97.76;103547.31;5095753;27;97808;-27
2024/01/12 06:23:52;;;;;;;0.47;0.20;;;;;;;2.95;97.65;103567.94;5095601;27;96741;-28
2024/01/12 06:26:17;;;;;;;0.43;0.38;;;;;;;2.88;96.63;103558.03;5095821;27;96806;-27
2024/01/12 06:28:43;;;;;;;0.00;0.00;;;;;;;2.93;97.32;103568.81;5095286;27;99843;-28
2024/01/12 06:31:08;;;;;;;0.20;0.20;;;;;;;2.85;96.96;103566.03;5095501;27;96688;-27
2024/01/12 06:33:34;;;;;;;0.17;0.17;;;;;;;2.82;96.87;103565.97;5096042;27;96687;-28
2024/01/12 06:36:01;;;;;;;0.22;0.22;;;;;;;2.86;97.02;103578.53;5077327;27;96686;-28
2024/01/12 06:38:27;;;;;;;0.00;0.00;;;;;;;2.75;97.63;103556.97;5076256;27;99147;-27
2024/01/12 06:40:52;;;;;;;0.20;0.13;;;;;;;2.88;97.89;103575.88;5095072;27;99009;-28
2024/01/12 06:43:18;;;;;;;0.32;0.32;;;;;;;2.82;97.32;103559.75;5095136;27;96614;-27
2024/01/12 06:45:43;;;;;;;0.13;0.13;;;;;;;2.79;97.95;103565.03;5095521;27;96848;-27
2024/01/12 06:48:10;;;;;;;0.30;0.20;;;;;;;2.81;97.79;103571.31;5095030;27;98159;-27
2024/01/12 06:50:35;;;;;;;0.05;0.05;;;;;;;2.74;97.62;103564.94;5094943;27;99489;-28
2024/01/12 06:53:04;;;;;;;1.00;0.52;;;;;;;2.73;97.42;103568.53;5094750;27;96704;-27
2024/01/12 06:55:29;;;;;;;0.45;0.38;;;;;;;2.75;98.04;103566.78;5076802;27;96776;-27
2024/01/12 06:57:55;;;;;;;0.85;0.70;;;;;;;2.81;98.20;103573.97;5094924;27;98999;-28
2024/01/12 07:00:20;;;;;;;0.25;0.25;;;;;;;2.85;98.33;103575.84;5095132;27;99168;-27
2024/01/12 07:02:46;;;;;;;2.83;1.23;;;;;;;2.88;98.15;103582.13;5094118;27;96744;-27
2024/01/12 07:05:11;;;;;;;2.15;0.40;;;;;;;2.87;97.86;103591.03;5094727;27;96757;-27
2024/01/12 07:07:40;;;;;;;0.28;0.25;;;;;;;2.86;98.35;103583.91;5093845;27;99200;-27
2024/01/12 07:10:06;;;;;;;0.00;0.00;;;;;;;2.84;97.87;103584.75;5075980;27;101123;-27
2024/01/12 07:12:31;;;;;;;1.10;0.93;;;;;;;2.84;98.04;103576.72;5094736;27;96578;-27
2024/01/12 07:14:56;;;;;;;0.20;0.15;;;;;;;2.84;98.31;103569.59;5094907;27;96697;-28
2024/01/12 07:17:22;;;;;;;0.32;0.32;;;;;;;2.84;98.36;103571.38;5094647;27;99648;-27
2024/01/12 07:19:47;;;;;;;0.68;0.40;;;;;;;2.84;98.43;103564.22;5094908;27;97790;-27
2024/01/12 07:22:12;;;;;;;0.55;0.38;;;;;;;2.88;98.18;103568.72;5094559;27;96676;-28
2024/01/12 07:24:38;;;;;;;0.30;0.20;;;;;;;2.88;98.28;103566.06;5095174;27;96814;-27
2024/01/12 07:27:03;;;;;;;1.27;0.77;;;;;;;2.88;98.37;103560.69;5094415;27;101161;-27
2024/01/12 07:29:28;;;;;;;0.73;0.50;;;;;;;2.86;98.19;103556.22;5094494;27;97428;-27
2024/01/12 07:31:54;;;;;;;1.27;0.77;;;;;;;2.89;97.42;103562.53;5093969;27;99081;-28
2024/01/12 07:34:20;;;;;;;0.22;0.22;;;;;;;2.89;97.45;103556.28;5075757;27;97869;-27
2024/01/12 07:36:45;;;;;;;0.30;0.30;;;;;;;2.91;97.42;103555.41;5094216;27;97883;-27
2024/01/12 07:39:11;;;;;;;1.33;1.17;;;;;;;2.85;97.25;103546.38;5094434;27;97785;-28
2024/01/12 07:41:37;;;;;;;1.25;0.45;;;;;;;2.85;97.19;103566.03;5094202;27;96461;-27
2024/01/12 07:44:02;;;;;;;0.28;0.28;;;;;;;2.75;97.96;103553.38;5094171;27;96859;-29
2024/01/12 07:46:28;;;;;;;0.98;0.55;;;;;;;2.80;97.72;103565.06;5094034;27;98442;-27
2024/01/12 07:48:54;;;;;;;0.50;0.38;;;;;;;2.76;98.83;103549.81;5094537;27;101961;-28
2024/01/12 07:51:20;;;;;;;1.35;0.52;;;;;;;2.79;98.50;103554.31;5093263;27;96709;-27
2024/01/12 07:53:45;;;;;;;0.13;0.13;;;;;;;2.78;98.50;103541.81;5094440;27;96762;-27
2024/01/12 07:56:11;;;;;;;0.28;0.28;;;;;;;2.83;98.12;103557.06;5093687;27;97969;-27
2024/01/12 07:58:37;;;;;;;0.88;0.60;;;;;;;2.81;98.68;103541.88;5075302;27;100746;-27
2024/01/12 08:01:05;;;;;;;1.17;1.08;;;;;;;2.86;98.98;103548.19;5075494;27;96617;-28
2024/01/12 08:03:31;;;;;;;0.50;0.47;;;;;;;2.80;98.53;103546.31;5074855;27;97847;-27
2024/01/12 08:05:56;;;;;;;0.80;0.68;;;;;;;2.84;98.12;103553.53;5093561;27;98690;-27
2024/01/12 08:08:21;;;;;;;0.50;0.43;;;;;;;2.81;98.45;103557.91;5093678;27;99101;-27
2024/01/12 08:10:47;;;;;;;0.17;0.17;;;;;;;2.85;98.48;103570.47;5093857;27;97939;-27
2024/01/12 08:13:13;;;;;;;0.22;0.22;;;;;;;2.82;98.12;103567.78;5094442;27;96767;-27
2024/01/12 08:15:38;;;;;;;0.57;0.57;;;;;;;2.79;97.86;103559.66;5075235;27;100765;-27
2024/01/12 08:18:04;;;;;;;0.28;0.28;;;;;;;2.84;98.48;103572.25;5093516;27;105425;-27
2024/01/12 08:20:29;;;;;;;0.68;0.45;;;;;;;2.87;98.50;103577.66;5093185;27;96606;-27
2024/01/12 08:22:54;;;;;;;1.23;0.65;;;;;;;2.91;98.90;103581.28;5093697;27;96888;-27
2024/01/12 08:25:20;;;;;;;0.10;0.10;;;;;;;2.85;98.67;103566.03;5093732;27;99041;-27
2024/01/12 08:27:45;;;;;;;0.95;0.68;;;;;;;2.92;98.46;103575.94;5093586;27;99223;-27
2024/01/12 08:30:11;;;;;;;1.15;0.68;;;;;;;2.91;98.10;103571.47;5093632;27;98247;-29
2024/01/12 08:32:36;;;;;;;0.57;0.38;;;;;;;2.96;97.82;103571.53;5093543;27;96766;-28
2024/01/12 08:35:01;;;;;;;0.40;0.40;;;;;;;2.97;98.02;103567.97;5093058;27;99418;-27
2024/01/12 08:37:27;;;;;;;0.28;0.28;;;;;;;3.01;97.93;103582.31;5093673;27;99150;-27
2024/01/12 08:39:52;;;;;;;2.17;0.65;;;;;;;2.98;98.46;103584.06;5093465;27;96508;-27
2024/01/12 08:42:17;;;;;;;0.95;0.57;;;;;;;3.00;98.75;103580.50;5093491;27;96829;-28
2024/01/12 08:44:43;;;;;;;0.70;0.55;;;;;;;2.96;98.68;103572.44;5093037;27;98535;-28
2024/01/12 08:47:08;;;;;;;0.65;0.43;;;;;;;3.03;98.59;103586.81;5093543;27;98037;-27
2024/01/12 08:49:33;;;;;;;0.57;0.57;;;;;;;3.05;98.42;103578.78;5093106;27;96506;-28
2024/01/12 08:51:58;;;;;;;0.95;0.47;;;;;;;3.04;98.42;103587.72;5093105;27;96813;-27
2024/01/12 08:54:24;;;;;;;0.93;0.63;;;;;;;3.08;98.39;103582.41;5093346;27;98119;-27
2024/01/12 08:56:50;;;;;;;0.75;0.63;;;;;;;3.06;98.60;103576.13;5093169;27;102103;-27
2024/01/12 08:59:15;;;;;;;0.47;0.38;;;;;;;3.06;98.45;103580.59;5074604;27;96690;-27
2024/01/12 09:01:40;;;;;;;0.57;0.43;;;;;;;3.10;98.46;103582.41;5093717;27;96583;-27
2024/01/12 09:04:06;;;;;;;2.95;1.20;;;;;;;3.17;98.35;103586.97;5096111;27;99734;-27
2024/01/12 09:06:31;;;;;;;0.10;0.10;;;;;;;3.14;97.90;103576.22;5096787;27;98110;-27
2024/01/12 09:08:56;;;;;;;0.63;0.55;;;;;;;3.21;98.20;103585.25;5096021;27;96437;-27
2024/01/12 09:11:22;;;;;;;0.25;0.25;;;;;;;3.18;98.36;103584.34;5096849;27;96766;-26
2024/01/12 09:13:48;;;;;;;0.95;0.60;;;;;;;3.22;98.04;103570.97;5096005;27;98028;-33
2024/01/12 09:16:15;;;;;;;1.02;0.75;;;;;;;3.27;98.28;103575.53;5096345;27;97132;-27
2024/01/12 09:18:43;;;;;;;0.75;0.68;;;;;;;3.26;98.15;103564.78;5077928;27;96667;-27
2024/01/12 09:21:09;;;;;;;0.30;0.30;;;;;;;3.27;97.54;103561.25;5077997;27;96684;-27
2024/01/12 09:23:34;;;;;;;1.63;1.20;;;;;;;3.36;97.59;103572.03;5076818;27;101315;-28
2024/01/12 09:25:59;;;;;;;0.45;0.45;;;;;;;3.38;97.22;103579.25;5095871;27;98940;-27
2024/01/12 09:28:25;;;;;;;3.58;0.73;;;;;;;3.38;97.46;103573.91;5096340;27;96605;-27
2024/01/12 09:30:50;;;;;;;0.45;0.45;;;;;;;3.47;96.69;103580.22;5095656;27;97249;-27
2024/01/12 09:33:15;;;;;;;0.30;0.17;;;;;;;3.52;96.82;103573.16;5075034;27;97271;-28
2024/01/12 09:35:41;;;;;;;1.50;0.88;;;;;;;3.57;96.32;103574.09;5093556;27;99121;-28
2024/01/12 09:38:06;;;;;;;0.30;0.30;;;;;;;3.60;96.45;103576.84;5094047;27;97163;-27
2024/01/12 09:40:32;;;;;;;1.10;0.40;;;;;;;3.62;96.24;103569.69;5093726;27;96817;-28
2024/01/12 09:43:00;;;;;;;0.40;0.32;;;;;;;3.63;95.94;103567.94;5074898;27;101330;-27
2024/01/12 09:45:25;;;;;;;0.45;0.30;;;;;;;3.68;95.90;103572.44;5075035;27;101274;-27
2024/01/12 09:47:51;;;;;;;1.48;0.30;;;;;;;3.71;95.87;103574.25;5076872;27;96802;-27
2024/01/12 09:50:21;;;;;;;0.03;0.00;;;;;;;3.81;95.72;103584.19;5077804;27;96791;-27
2024/01/12 09:52:50;;;;;;;1.13;0.15;;;;;;;3.83;95.47;103580.63;5075968;27;100743;-28
2024/01/12 09:55:15;;;;;;;0.00;0.00;;;;;;;3.88;95.27;103585.16;5095911;27;98013;-27
2024/01/12 09:57:44;;;;;;;0.17;0.10;;;;;;;3.92;95.18;103579.84;5095616;27;96612;-27
2024/01/12 10:00:11;;;;;;;2.03;0.88;;;;;;;3.94;95.01;103579.88;5095973;27;96760;-27
2024/01/12 10:02:36;;;;;;;0.10;0.08;;;;;;;3.88;94.62;103564.59;5095368;27;99879;-27
2024/01/12 10:05:02;;;;;;;0.00;0.00;;;;;;;4.03;94.46;103579.97;5094042;27;97764;-28
2024/01/12 10:07:27;;;;;;;0.03;0.03;;;;;;;4.01;94.10;103568.31;5093677;27;96811;-30
2024/01/12 10:09:53;;;;;;;0.15;0.15;;;;;;;4.06;94.04;103569.25;5093764;27;96762;-27
2024/01/12 10:12:18;;;;;;;0.10;0.10;;;;;;;4.14;94.52;103583.63;5093305;27;98965;-27
2024/01/12 10:14:43;;;;;;;0.45;0.20;;;;;;;4.16;93.88;103568.44;5074645;27;98250;-27
2024/01/12 10:17:11;;;;;;;0.10;0.10;;;;;;;4.18;93.82;103588.16;5093144;27;97068;-33
2024/01/12 10:19:36;;;;;;;0.88;0.32;;;;;;;4.18;94.37;103584.56;5094429;27;96988;-26
2024/01/12 10:22:01;;;;;;;1.75;0.68;;;;;;;4.17;94.17;103578.31;5095235;27;97644;-27
2024/01/12 10:24:30;;;;;;;0.03;0.03;;;;;;;4.22;94.18;103584.63;5095791;27;97308;-27
2024/01/12 10:27:02;;;;;;;0.30;0.30;;;;;;;4.18;93.97;103569.38;5077110;27;96893;-28
2024/01/12 10:29:27;;;;;;;1.75;0.40;;;;;;;4.19;93.94;103563.09;5095659;27;96800;-28
2024/01/12 10:31:53;;;;;;;0.35;0.10;;;;;;;4.24;93.88;103569.44;5095078;27;99378;-27
2024/01/12 10:34:20;;;;;;;0.00;0.00;;;;;;;4.31;93.59;103572.16;5095354;27;99382;-26
2024/01/12 10:36:49;;;;;;;0.10;0.10;;;;;;;4.26;93.86;103550.66;5076824;27;96626;-27
2024/01/12 10:39:18;;;;;;;1.60;0.35;;;;;;;4.47;92.81;103545.44;5077105;27;96734;-26
2024/01/12 10:41:46;;;;;;;0.10;0.10;;;;;;;4.38;93.42;103550.75;5076583;27;101258;-27
2024/01/12 10:44:15;;;;;;;0.10;0.10;;;;;;;4.34;93.56;103545.34;5076251;27;101573;-27
2024/01/12 10:46:45;;;;;;;0.08;0.08;;;;;;;4.38;93.57;103553.44;5076255;27;97320;-27
2024/01/12 10:49:20;;;;;;;0.00;0.00;;;;;;;4.41;94.02;103548.13;5094948;27;96695;-26
2024/01/12 10:52:08;;;;;;;2.45;0.43;;;;;;;4.44;93.70;103550.81;5076049;27;100949;-26
2024/01/12 10:54:43;;;;;;;3.05;0.55;;;;;;;4.44;93.22;103545.44;5076483;27;100953;-26
2024/01/12 10:57:09;;;;;;;0.00;0.00;;;;;;;4.46;93.18;103537.41;5076658;27;96622;-27
2024/01/12 10:59:36;;;;;;;0.57;0.28;;;;;;;4.48;92.89;103538.28;5095259;27;96834;-27
2024/01/12 11:02:03;;;;;;;0.82;0.50;;;;;;;4.47;93.00;103541.88;5076013;27;101089;-27
2024/01/12 11:04:29;;;;;;;0.32;0.28;;;;;;;4.50;93.15;103532.94;5095330;27;98009;-27
2024/01/12 11:06:57;;;;;;;0.03;0.03;;;;;;;4.44;93.31;103520.41;5076450;27;96699;-27
2024/01/12 11:09:22;;;;;;;0.65;0.47;;;;;;;4.46;93.73;103515.94;5076347;27;96861;-27
2024/01/12 11:12:09;;;;;;;1.17;0.38;;;;;;;4.49;93.03;103532.06;5094011;27;99279;-27
2024/01/12 11:14:38;;;;;;;0.13;0.13;;;;;;;4.44;93.30;103517.72;5076199;27;101221;-27
2024/01/12 11:17:07;;;;;;;2.25;0.68;;;;;;;4.54;93.07;103532.09;5095160;27;96621;-26
2024/01/12 11:19:34;;;;;;;0.13;0.13;;;;;;;4.53;93.46;103528.53;5075982;27;96808;-27
2024/01/12 11:22:08;;;;;;;0.40;0.38;;;;;;;4.54;93.05;103535.66;5075910;27;101065;-26
2024/01/12 11:24:36;;;;;;;7.05;1.58;;;;;;;4.61;93.21;103532.13;5075335;27;101304;-26